sensor_id;sensor_type;location;lat;lon;timestamp;P1;durP1;ratioP1;P2;durP2;ratioP2
36225;SDS011;22268;52.010;4.716;2023-06-14T00:01:48;4.85;;;3.72;;
36225;SDS011;22268;52.010;4.716;2023-06-14T00:04:14;8.10;;;3.67;;
36225;SDS011;22268;52.010;4.716;2023-06-14T00:06:41;7.03;;;3.85;;
36225;SDS011;22268;52.010;4.716;2023-06-14T00:09:06;12.05;;;3.62;;
36225;SDS011;22268;52.010;4.716;2023-06-14T00:11:33;12.05;;;4.07;;
36225;SDS011;22268;52.010;4.716;2023-06-14T00:13:58;10.05;;;3.72;;
36225;SDS011;22268;52.010;4.716;2023-06-14T00:16:24;11.45;;;4.40;;
36225;SDS011;22268;52.010;4.716;2023-06-14T00:18:49;6.65;;;3.67;;
36225;SDS011;22268;52.010;4.716;2023-06-14T00:21:16;9.00;;;3.60;;
36225;SDS011;22268;52.010;4.716;2023-06-14T00:23:41;5.93;;;3.30;;
36225;SDS011;22268;52.010;4.716;2023-06-14T00:26:06;11.27;;;4.50;;
36225;SDS011;22268;52.010;4.716;2023-06-14T00:28:32;6.60;;;3.53;;
36225;SDS011;22268;52.010;4.716;2023-06-14T00:30:57;8.00;;;3.60;;
36225;SDS011;22268;52.010;4.716;2023-06-14T00:33:22;14.90;;;4.03;;
36225;SDS011;22268;52.010;4.716;2023-06-14T00:35:47;6.03;;;3.62;;
36225;SDS011;22268;52.010;4.716;2023-06-14T00:38:13;4.87;;;3.70;;
36225;SDS011;22268;52.010;4.716;2023-06-14T00:40:38;6.03;;;3.50;;
36225;SDS011;22268;52.010;4.716;2023-06-14T00:43:03;5.40;;;3.70;;
36225;SDS011;22268;52.010;4.716;2023-06-14T00:45:28;6.15;;;3.65;;
36225;SDS011;22268;52.010;4.716;2023-06-14T00:47:56;7.32;;;3.65;;
36225;SDS011;22268;52.010;4.716;2023-06-14T00:50:21;9.63;;;3.78;;
36225;SDS011;22268;52.010;4.716;2023-06-14T00:52:48;7.97;;;3.87;;
36225;SDS011;22268;52.010;4.716;2023-06-14T00:55:13;8.38;;;3.80;;
36225;SDS011;22268;52.010;4.716;2023-06-14T00:57:39;7.57;;;3.60;;
36225;SDS011;22268;52.010;4.716;2023-06-14T01:00:05;8.65;;;3.28;;
36225;SDS011;22268;52.010;4.716;2023-06-14T01:02:37;4.80;;;2.97;;
36225;SDS011;22268;52.010;4.716;2023-06-14T01:05:02;8.60;;;3.87;;
36225;SDS011;22268;52.010;4.716;2023-06-14T01:15:17;9.13;;;4.75;;
36225;SDS011;22268;52.010;4.716;2023-06-14T01:17:43;7.03;;;3.17;;
36225;SDS011;22268;52.010;4.716;2023-06-14T01:20:11;7.37;;;4.07;;
36225;SDS011;22268;52.010;4.716;2023-06-14T01:22:47;9.15;;;3.53;;
36225;SDS011;22268;52.010;4.716;2023-06-14T01:25:13;5.15;;;2.95;;
36225;SDS011;22268;52.010;4.716;2023-06-14T01:27:38;11.38;;;3.50;;
36225;SDS011;22268;52.010;4.716;2023-06-14T01:30:04;5.05;;;2.92;;
36225;SDS011;22268;52.010;4.716;2023-06-14T01:32:30;8.07;;;3.83;;
36225;SDS011;22268;52.010;4.716;2023-06-14T01:34:55;7.10;;;3.33;;
36225;SDS011;22268;52.010;4.716;2023-06-14T01:37:20;7.23;;;3.40;;
36225;SDS011;22268;52.010;4.716;2023-06-14T01:39:46;5.87;;;2.95;;
36225;SDS011;22268;52.010;4.716;2023-06-14T01:42:12;3.83;;;2.92;;
36225;SDS011;22268;52.010;4.716;2023-06-14T01:44:38;4.37;;;2.97;;
36225;SDS011;22268;52.010;4.716;2023-06-14T01:47:03;11.70;;;3.62;;
36225;SDS011;22268;52.010;4.716;2023-06-14T01:49:28;8.60;;;4.28;;
36225;SDS011;22268;52.010;4.716;2023-06-14T01:51:53;8.23;;;2.90;;
36225;SDS011;22268;52.010;4.716;2023-06-14T01:54:19;9.77;;;3.75;;
36225;SDS011;22268;52.010;4.716;2023-06-14T01:56:44;8.30;;;3.25;;
36225;SDS011;22268;52.010;4.716;2023-06-14T01:59:09;7.75;;;2.87;;
36225;SDS011;22268;52.010;4.716;2023-06-14T02:01:35;10.50;;;3.70;;
36225;SDS011;22268;52.010;4.716;2023-06-14T02:04:01;4.50;;;2.50;;
36225;SDS011;22268;52.010;4.716;2023-06-14T02:06:26;9.13;;;4.20;;
36225;SDS011;22268;52.010;4.716;2023-06-14T02:08:53;5.15;;;3.12;;
36225;SDS011;22268;52.010;4.716;2023-06-14T02:11:18;10.20;;;3.20;;
36225;SDS011;22268;52.010;4.716;2023-06-14T02:13:43;6.43;;;3.60;;
36225;SDS011;22268;52.010;4.716;2023-06-14T02:16:08;6.85;;;3.17;;
36225;SDS011;22268;52.010;4.716;2023-06-14T02:18:33;7.20;;;2.55;;
36225;SDS011;22268;52.010;4.716;2023-06-14T02:20:59;7.87;;;3.30;;
36225;SDS011;22268;52.010;4.716;2023-06-14T02:23:24;5.10;;;3.03;;
36225;SDS011;22268;52.010;4.716;2023-06-14T02:25:49;7.47;;;3.47;;
36225;SDS011;22268;52.010;4.716;2023-06-14T02:28:15;9.27;;;3.42;;
36225;SDS011;22268;52.010;4.716;2023-06-14T02:30:40;3.80;;;2.90;;
36225;SDS011;22268;52.010;4.716;2023-06-14T02:33:05;7.95;;;3.53;;
36225;SDS011;22268;52.010;4.716;2023-06-14T02:35:31;11.23;;;4.65;;
36225;SDS011;22268;52.010;4.716;2023-06-14T02:37:56;6.40;;;3.50;;
36225;SDS011;22268;52.010;4.716;2023-06-14T02:40:21;6.43;;;3.60;;
36225;SDS011;22268;52.010;4.716;2023-06-14T02:42:47;12.25;;;3.80;;
36225;SDS011;22268;52.010;4.716;2023-06-14T02:45:12;6.18;;;3.50;;
36225;SDS011;22268;52.010;4.716;2023-06-14T02:47:37;6.62;;;3.90;;
36225;SDS011;22268;52.010;4.716;2023-06-14T02:50:02;8.77;;;4.30;;
36225;SDS011;22268;52.010;4.716;2023-06-14T02:52:28;6.10;;;3.17;;
36225;SDS011;22268;52.010;4.716;2023-06-14T02:54:53;8.80;;;3.40;;
36225;SDS011;22268;52.010;4.716;2023-06-14T02:57:19;8.55;;;3.90;;
36225;SDS011;22268;52.010;4.716;2023-06-14T02:59:44;10.18;;;3.30;;
36225;SDS011;22268;52.010;4.716;2023-06-14T03:02:09;5.05;;;3.10;;
36225;SDS011;22268;52.010;4.716;2023-06-14T03:04:35;9.15;;;3.75;;
36225;SDS011;22268;52.010;4.716;2023-06-14T03:07:02;7.70;;;3.47;;
36225;SDS011;22268;52.010;4.716;2023-06-14T03:09:27;9.73;;;4.20;;
36225;SDS011;22268;52.010;4.716;2023-06-14T03:11:53;6.47;;;3.05;;
36225;SDS011;22268;52.010;4.716;2023-06-14T03:14:18;4.97;;;3.43;;
36225;SDS011;22268;52.010;4.716;2023-06-14T03:16:44;5.78;;;3.47;;
36225;SDS011;22268;52.010;4.716;2023-06-14T03:19:10;8.02;;;3.83;;
36225;SDS011;22268;52.010;4.716;2023-06-14T03:21:35;12.45;;;3.80;;
36225;SDS011;22268;52.010;4.716;2023-06-14T03:24:00;9.70;;;3.40;;
36225;SDS011;22268;52.010;4.716;2023-06-14T03:26:28;5.12;;;3.50;;
36225;SDS011;22268;52.010;4.716;2023-06-14T03:28:56;7.07;;;3.95;;
36225;SDS011;22268;52.010;4.716;2023-06-14T03:31:21;9.32;;;3.70;;
36225;SDS011;22268;52.010;4.716;2023-06-14T03:33:47;8.38;;;3.90;;
36225;SDS011;22268;52.010;4.716;2023-06-14T03:36:12;13.18;;;4.25;;
36225;SDS011;22268;52.010;4.716;2023-06-14T03:38:37;7.70;;;3.62;;
36225;SDS011;22268;52.010;4.716;2023-06-14T03:41:02;9.93;;;3.30;;
36225;SDS011;22268;52.010;4.716;2023-06-14T03:43:27;9.70;;;4.03;;
36225;SDS011;22268;52.010;4.716;2023-06-14T03:45:53;9.63;;;3.78;;
36225;SDS011;22268;52.010;4.716;2023-06-14T03:48:18;8.82;;;3.00;;
36225;SDS011;22268;52.010;4.716;2023-06-14T03:50:43;9.98;;;3.72;;
36225;SDS011;22268;52.010;4.716;2023-06-14T03:53:09;6.72;;;3.10;;
36225;SDS011;22268;52.010;4.716;2023-06-14T03:55:35;10.05;;;3.70;;
36225;SDS011;22268;52.010;4.716;2023-06-14T03:58:00;8.30;;;3.63;;
36225;SDS011;22268;52.010;4.716;2023-06-14T04:00:25;8.32;;;3.58;;
36225;SDS011;22268;52.010;4.716;2023-06-14T04:02:51;5.78;;;3.60;;
36225;SDS011;22268;52.010;4.716;2023-06-14T04:05:16;9.98;;;3.85;;
36225;SDS011;22268;52.010;4.716;2023-06-14T04:07:44;10.05;;;3.70;;
36225;SDS011;22268;52.010;4.716;2023-06-14T04:10:10;8.70;;;4.18;;
36225;SDS011;22268;52.010;4.716;2023-06-14T04:12:36;6.87;;;3.62;;
36225;SDS011;22268;52.010;4.716;2023-06-14T04:15:01;7.72;;;3.58;;
36225;SDS011;22268;52.010;4.716;2023-06-14T04:17:26;9.05;;;3.45;;
36225;SDS011;22268;52.010;4.716;2023-06-14T04:19:51;9.82;;;4.35;;
36225;SDS011;22268;52.010;4.716;2023-06-14T04:22:17;10.45;;;3.42;;
36225;SDS011;22268;52.010;4.716;2023-06-14T04:24:43;10.45;;;3.42;;
36225;SDS011;22268;52.010;4.716;2023-06-14T04:27:09;7.60;;;3.45;;
36225;SDS011;22268;52.010;4.716;2023-06-14T04:29:35;10.82;;;3.37;;
36225;SDS011;22268;52.010;4.716;2023-06-14T04:32:00;8.18;;;4.07;;
36225;SDS011;22268;52.010;4.716;2023-06-14T04:34:26;7.03;;;3.17;;
36225;SDS011;22268;52.010;4.716;2023-06-14T04:36:54;5.20;;;3.10;;
36225;SDS011;22268;52.010;4.716;2023-06-14T04:39:20;8.35;;;3.42;;
36225;SDS011;22268;52.010;4.716;2023-06-14T04:41:46;13.93;;;3.75;;
36225;SDS011;22268;52.010;4.716;2023-06-14T04:44:12;9.40;;;3.70;;
36225;SDS011;22268;52.010;4.716;2023-06-14T04:46:37;6.32;;;3.25;;
36225;SDS011;22268;52.010;4.716;2023-06-14T04:49:10;10.77;;;3.87;;
36225;SDS011;22268;52.010;4.716;2023-06-14T04:51:40;6.75;;;3.60;;
36225;SDS011;22268;52.010;4.716;2023-06-14T04:54:06;8.15;;;3.72;;
36225;SDS011;22268;52.010;4.716;2023-06-14T04:56:34;10.25;;;3.33;;
36225;SDS011;22268;52.010;4.716;2023-06-14T04:59:00;6.75;;;3.65;;
36225;SDS011;22268;52.010;4.716;2023-06-14T05:01:25;7.55;;;3.78;;
36225;SDS011;22268;52.010;4.716;2023-06-14T05:03:51;10.25;;;3.85;;
36225;SDS011;22268;52.010;4.716;2023-06-14T05:06:16;4.90;;;2.85;;
36225;SDS011;22268;52.010;4.716;2023-06-14T05:08:42;12.00;;;4.15;;
36225;SDS011;22268;52.010;4.716;2023-06-14T05:11:07;7.77;;;3.43;;
36225;SDS011;22268;52.010;4.716;2023-06-14T05:13:32;6.57;;;3.17;;
36225;SDS011;22268;52.010;4.716;2023-06-14T05:15:59;6.12;;;3.00;;
36225;SDS011;22268;52.010;4.716;2023-06-14T05:18:25;7.05;;;2.92;;
36225;SDS011;22268;52.010;4.716;2023-06-14T05:20:50;8.35;;;3.58;;
36225;SDS011;22268;52.010;4.716;2023-06-14T05:23:15;7.12;;;3.22;;
36225;SDS011;22268;52.010;4.716;2023-06-14T05:25:42;9.75;;;3.78;;
36225;SDS011;22268;52.010;4.716;2023-06-14T05:28:07;11.43;;;3.00;;
36225;SDS011;22268;52.010;4.716;2023-06-14T05:30:32;8.88;;;3.80;;
36225;SDS011;22268;52.010;4.716;2023-06-14T05:32:58;5.60;;;3.10;;
36225;SDS011;22268;52.010;4.716;2023-06-14T05:35:23;7.72;;;3.40;;
36225;SDS011;22268;52.010;4.716;2023-06-14T05:37:51;4.95;;;3.25;;
36225;SDS011;22268;52.010;4.716;2023-06-14T05:40:16;9.65;;;2.83;;
36225;SDS011;22268;52.010;4.716;2023-06-14T05:42:42;6.85;;;3.55;;
36225;SDS011;22268;52.010;4.716;2023-06-14T05:45:07;7.32;;;2.97;;
36225;SDS011;22268;52.010;4.716;2023-06-14T05:47:33;6.85;;;3.35;;
36225;SDS011;22268;52.010;4.716;2023-06-14T05:49:58;8.93;;;3.17;;
36225;SDS011;22268;52.010;4.716;2023-06-14T05:52:23;5.30;;;3.25;;
36225;SDS011;22268;52.010;4.716;2023-06-14T05:54:48;16.48;;;3.33;;
36225;SDS011;22268;52.010;4.716;2023-06-14T05:57:14;9.75;;;3.28;;
36225;SDS011;22268;52.010;4.716;2023-06-14T05:59:40;10.05;;;3.30;;
36225;SDS011;22268;52.010;4.716;2023-06-14T06:02:05;8.68;;;3.53;;
36225;SDS011;22268;52.010;4.716;2023-06-14T06:04:30;6.45;;;3.60;;
36225;SDS011;22268;52.010;4.716;2023-06-14T06:06:55;8.00;;;3.25;;
36225;SDS011;22268;52.010;4.716;2023-06-14T06:09:21;7.03;;;3.17;;
36225;SDS011;22268;52.010;4.716;2023-06-14T06:11:46;7.68;;;3.53;;
36225;SDS011;22268;52.010;4.716;2023-06-14T06:14:11;10.60;;;3.53;;
36225;SDS011;22268;52.010;4.716;2023-06-14T06:16:36;9.07;;;3.60;;
36225;SDS011;22268;52.010;4.716;2023-06-14T06:19:01;9.33;;;3.77;;
36225;SDS011;22268;52.010;4.716;2023-06-14T06:21:27;10.20;;;2.75;;
36225;SDS011;22268;52.010;4.716;2023-06-14T06:23:52;11.20;;;4.23;;
36225;SDS011;22268;52.010;4.716;2023-06-14T06:26:17;5.37;;;3.00;;
36225;SDS011;22268;52.010;4.716;2023-06-14T06:28:42;6.30;;;3.67;;
36225;SDS011;22268;52.010;4.716;2023-06-14T06:31:07;6.12;;;3.20;;
36225;SDS011;22268;52.010;4.716;2023-06-14T06:33:33;8.07;;;3.57;;
36225;SDS011;22268;52.010;4.716;2023-06-14T06:35:58;16.52;;;4.35;;
36225;SDS011;22268;52.010;4.716;2023-06-14T06:38:23;9.23;;;3.60;;
36225;SDS011;22268;52.010;4.716;2023-06-14T06:40:48;7.15;;;3.33;;
36225;SDS011;22268;52.010;4.716;2023-06-14T06:43:13;7.45;;;3.22;;
36225;SDS011;22268;52.010;4.716;2023-06-14T06:45:39;9.55;;;3.85;;
36225;SDS011;22268;52.010;4.716;2023-06-14T06:48:05;5.47;;;3.30;;
36225;SDS011;22268;52.010;4.716;2023-06-14T06:50:30;7.97;;;3.15;;
36225;SDS011;22268;52.010;4.716;2023-06-14T06:52:55;7.97;;;3.35;;
36225;SDS011;22268;52.010;4.716;2023-06-14T06:55:20;11.95;;;4.43;;
36225;SDS011;22268;52.010;4.716;2023-06-14T06:57:46;6.93;;;3.47;;
36225;SDS011;22268;52.010;4.716;2023-06-14T07:00:11;9.48;;;3.37;;
36225;SDS011;22268;52.010;4.716;2023-06-14T07:02:37;5.35;;;3.47;;
36225;SDS011;22268;52.010;4.716;2023-06-14T07:05:02;10.10;;;3.85;;
36225;SDS011;22268;52.010;4.716;2023-06-14T07:07:28;6.10;;;3.45;;
36225;SDS011;22268;52.010;4.716;2023-06-14T07:09:53;8.52;;;3.40;;
36225;SDS011;22268;52.010;4.716;2023-06-14T07:12:18;9.18;;;4.10;;
36225;SDS011;22268;52.010;4.716;2023-06-14T07:14:43;7.97;;;3.27;;
36225;SDS011;22268;52.010;4.716;2023-06-14T07:17:08;9.10;;;4.07;;
36225;SDS011;22268;52.010;4.716;2023-06-14T07:19:34;6.15;;;3.33;;
36225;SDS011;22268;52.010;4.716;2023-06-14T07:21:59;12.77;;;3.53;;
36225;SDS011;22268;52.010;4.716;2023-06-14T07:24:25;5.50;;;3.20;;
36225;SDS011;22268;52.010;4.716;2023-06-14T07:26:50;7.85;;;3.47;;
36225;SDS011;22268;52.010;4.716;2023-06-14T07:29:15;8.43;;;3.30;;
36225;SDS011;22268;52.010;4.716;2023-06-14T07:31:41;8.95;;;3.70;;
36225;SDS011;22268;52.010;4.716;2023-06-14T07:34:06;12.70;;;3.62;;
36225;SDS011;22268;52.010;4.716;2023-06-14T07:36:31;6.60;;;3.20;;
36225;SDS011;22268;52.010;4.716;2023-06-14T07:38:57;7.10;;;3.30;;
36225;SDS011;22268;52.010;4.716;2023-06-14T07:41:22;9.70;;;3.97;;
36225;SDS011;22268;52.010;4.716;2023-06-14T07:43:47;13.35;;;3.40;;
36225;SDS011;22268;52.010;4.716;2023-06-14T07:46:12;5.33;;;3.43;;
36225;SDS011;22268;52.010;4.716;2023-06-14T07:48:38;6.85;;;3.53;;
36225;SDS011;22268;52.010;4.716;2023-06-14T07:51:03;8.60;;;3.65;;
36225;SDS011;22268;52.010;4.716;2023-06-14T07:53:29;7.55;;;3.65;;
36225;SDS011;22268;52.010;4.716;2023-06-14T07:55:55;14.73;;;3.78;;
36225;SDS011;22268;52.010;4.716;2023-06-14T07:58:21;8.70;;;3.60;;
36225;SDS011;22268;52.010;4.716;2023-06-14T08:00:46;7.28;;;3.50;;
36225;SDS011;22268;52.010;4.716;2023-06-14T08:03:12;11.60;;;3.37;;
36225;SDS011;22268;52.010;4.716;2023-06-14T08:05:37;9.43;;;3.40;;
36225;SDS011;22268;52.010;4.716;2023-06-14T08:08:02;14.05;;;4.43;;
36225;SDS011;22268;52.010;4.716;2023-06-14T08:10:28;8.50;;;3.50;;
36225;SDS011;22268;52.010;4.716;2023-06-14T08:12:53;15.38;;;3.78;;
36225;SDS011;22268;52.010;4.716;2023-06-14T08:15:18;7.00;;;3.63;;
36225;SDS011;22268;52.010;4.716;2023-06-14T08:17:43;14.80;;;3.60;;
36225;SDS011;22268;52.010;4.716;2023-06-14T08:20:09;8.65;;;3.35;;
36225;SDS011;22268;52.010;4.716;2023-06-14T08:22:34;7.03;;;2.97;;
36225;SDS011;22268;52.010;4.716;2023-06-14T08:25:01;10.68;;;3.65;;
36225;SDS011;22268;52.010;4.716;2023-06-14T08:27:26;12.80;;;3.90;;
36225;SDS011;22268;52.010;4.716;2023-06-14T08:29:51;7.25;;;3.35;;
36225;SDS011;22268;52.010;4.716;2023-06-14T08:32:17;7.43;;;2.92;;
36225;SDS011;22268;52.010;4.716;2023-06-14T08:34:42;8.32;;;3.30;;
36225;SDS011;22268;52.010;4.716;2023-06-14T08:37:07;5.75;;;3.37;;
36225;SDS011;22268;52.010;4.716;2023-06-14T08:39:32;9.07;;;3.22;;
36225;SDS011;22268;52.010;4.716;2023-06-14T08:41:58;6.62;;;3.30;;
36225;SDS011;22268;52.010;4.716;2023-06-14T08:44:23;7.07;;;3.33;;
36225;SDS011;22268;52.010;4.716;2023-06-14T08:46:48;8.73;;;3.50;;
36225;SDS011;22268;52.010;4.716;2023-06-14T08:49:15;3.28;;;2.75;;
36225;SDS011;22268;52.010;4.716;2023-06-14T08:51:41;4.72;;;3.35;;
36225;SDS011;22268;52.010;4.716;2023-06-14T08:54:08;8.05;;;3.10;;
36225;SDS011;22268;52.010;4.716;2023-06-14T08:56:35;7.72;;;3.30;;
36225;SDS011;22268;52.010;4.716;2023-06-14T08:59:02;6.82;;;3.28;;
36225;SDS011;22268;52.010;4.716;2023-06-14T09:01:28;7.22;;;3.25;;
36225;SDS011;22268;52.010;4.716;2023-06-14T09:03:54;9.07;;;3.30;;
36225;SDS011;22268;52.010;4.716;2023-06-14T09:06:22;6.97;;;2.83;;
36225;SDS011;22268;52.010;4.716;2023-06-14T09:08:48;3.40;;;2.80;;
36225;SDS011;22268;52.010;4.716;2023-06-14T09:11:14;4.15;;;2.53;;
36225;SDS011;22268;52.010;4.716;2023-06-14T09:13:40;9.63;;;2.55;;
36225;SDS011;22268;52.010;4.716;2023-06-14T09:16:08;8.07;;;2.55;;
36225;SDS011;22268;52.010;4.716;2023-06-14T09:18:40;5.78;;;2.90;;
36225;SDS011;22268;52.010;4.716;2023-06-14T09:21:06;13.30;;;3.22;;
36225;SDS011;22268;52.010;4.716;2023-06-14T09:23:36;4.35;;;2.92;;
36225;SDS011;22268;52.010;4.716;2023-06-14T09:26:04;8.57;;;2.72;;
36225;SDS011;22268;52.010;4.716;2023-06-14T09:28:31;3.47;;;2.70;;
36225;SDS011;22268;52.010;4.716;2023-06-14T09:30:56;10.93;;;2.73;;
36225;SDS011;22268;52.010;4.716;2023-06-14T09:33:21;6.85;;;2.70;;
36225;SDS011;22268;52.010;4.716;2023-06-14T09:35:50;5.32;;;2.72;;
36225;SDS011;22268;52.010;4.716;2023-06-14T09:38:15;5.22;;;2.85;;
36225;SDS011;22268;52.010;4.716;2023-06-14T09:40:40;7.97;;;2.90;;
36225;SDS011;22268;52.010;4.716;2023-06-14T09:43:06;5.77;;;2.70;;
36225;SDS011;22268;52.010;4.716;2023-06-14T09:45:33;9.90;;;3.28;;
36225;SDS011;22268;52.010;4.716;2023-06-14T09:47:58;8.82;;;2.90;;
36225;SDS011;22268;52.010;4.716;2023-06-14T09:50:23;3.87;;;2.60;;
36225;SDS011;22268;52.010;4.716;2023-06-14T09:52:49;9.33;;;2.50;;
36225;SDS011;22268;52.010;4.716;2023-06-14T09:55:16;5.85;;;2.95;;
36225;SDS011;22268;52.010;4.716;2023-06-14T09:57:41;2.75;;;2.17;;
36225;SDS011;22268;52.010;4.716;2023-06-14T10:00:07;3.33;;;2.50;;
36225;SDS011;22268;52.010;4.716;2023-06-14T10:02:36;6.07;;;2.55;;
36225;SDS011;22268;52.010;4.716;2023-06-14T10:05:04;7.30;;;2.60;;
36225;SDS011;22268;52.010;4.716;2023-06-14T10:07:35;10.32;;;2.40;;
36225;SDS011;22268;52.010;4.716;2023-06-14T10:10:03;7.03;;;2.58;;
36225;SDS011;22268;52.010;4.716;2023-06-14T10:12:28;7.40;;;2.50;;
36225;SDS011;22268;52.010;4.716;2023-06-14T10:14:53;9.07;;;2.70;;
36225;SDS011;22268;52.010;4.716;2023-06-14T10:17:22;19.55;;;3.10;;
36225;SDS011;22268;52.010;4.716;2023-06-14T10:19:50;3.33;;;2.33;;
36225;SDS011;22268;52.010;4.716;2023-06-14T10:22:19;5.90;;;2.53;;
36225;SDS011;22268;52.010;4.716;2023-06-14T10:24:48;5.20;;;2.42;;
36225;SDS011;22268;52.010;4.716;2023-06-14T10:27:15;12.27;;;2.53;;
36225;SDS011;22268;52.010;4.716;2023-06-14T10:30:05;4.93;;;2.12;;
36225;SDS011;22268;52.010;4.716;2023-06-14T10:32:28;4.10;;;2.50;;
36225;SDS011;22268;52.010;4.716;2023-06-14T10:34:55;5.07;;;2.03;;
36225;SDS011;22268;52.010;4.716;2023-06-14T10:37:21;4.22;;;2.30;;
36225;SDS011;22268;52.010;4.716;2023-06-14T10:39:46;6.10;;;2.45;;
36225;SDS011;22268;52.010;4.716;2023-06-14T10:42:11;7.00;;;3.22;;
36225;SDS011;22268;52.010;4.716;2023-06-14T10:47:05;7.27;;;2.33;;
36225;SDS011;22268;52.010;4.716;2023-06-14T10:49:38;4.20;;;2.30;;
36225;SDS011;22268;52.010;4.716;2023-06-14T10:52:07;5.55;;;2.30;;
36225;SDS011;22268;52.010;4.716;2023-06-14T10:54:34;6.90;;;2.47;;
36225;SDS011;22268;52.010;4.716;2023-06-14T10:56:59;6.13;;;2.50;;
36225;SDS011;22268;52.010;4.716;2023-06-14T10:59:24;2.67;;;1.85;;
36225;SDS011;22268;52.010;4.716;2023-06-14T11:04:17;6.32;;;2.12;;
36225;SDS011;22268;52.010;4.716;2023-06-14T11:09:54;3.25;;;2.10;;
36225;SDS011;22268;52.010;4.716;2023-06-14T11:12:01;2.83;;;1.90;;
36225;SDS011;22268;52.010;4.716;2023-06-14T11:14:29;6.68;;;1.92;;
36225;SDS011;22268;52.010;4.716;2023-06-14T11:16:54;4.97;;;2.05;;
36225;SDS011;22268;52.010;4.716;2023-06-14T11:19:19;2.53;;;1.75;;
36225;SDS011;22268;52.010;4.716;2023-06-14T11:21:49;3.55;;;2.12;;
36225;SDS011;22268;52.010;4.716;2023-06-14T11:24:14;2.33;;;1.90;;
36225;SDS011;22268;52.010;4.716;2023-06-14T11:26:40;5.95;;;2.05;;
36225;SDS011;22268;52.010;4.716;2023-06-14T11:29:05;3.92;;;2.40;;
36225;SDS011;22268;52.010;4.716;2023-06-14T11:31:31;3.47;;;1.92;;
36225;SDS011;22268;52.010;4.716;2023-06-14T11:33:57;5.43;;;2.20;;
36225;SDS011;22268;52.010;4.716;2023-06-14T11:36:23;8.45;;;2.00;;
36225;SDS011;22268;52.010;4.716;2023-06-14T11:38:48;3.70;;;2.00;;
36225;SDS011;22268;52.010;4.716;2023-06-14T11:41:13;6.03;;;1.87;;
36225;SDS011;22268;52.010;4.716;2023-06-14T11:43:39;8.73;;;2.30;;
36225;SDS011;22268;52.010;4.716;2023-06-14T11:46:11;2.60;;;1.92;;
36225;SDS011;22268;52.010;4.716;2023-06-14T11:48:37;7.03;;;2.15;;
36225;SDS011;22268;52.010;4.716;2023-06-14T11:51:03;5.70;;;1.98;;
36225;SDS011;22268;52.010;4.716;2023-06-14T11:53:29;7.43;;;2.53;;
36225;SDS011;22268;52.010;4.716;2023-06-14T11:55:54;1.95;;;1.60;;
36225;SDS011;22268;52.010;4.716;2023-06-14T11:58:19;6.97;;;2.45;;
36225;SDS011;22268;52.010;4.716;2023-06-14T12:00:45;3.62;;;2.10;;
36225;SDS011;22268;52.010;4.716;2023-06-14T12:03:13;8.85;;;2.62;;
36225;SDS011;22268;52.010;4.716;2023-06-14T12:05:38;2.58;;;1.90;;
36225;SDS011;22268;52.010;4.716;2023-06-14T12:08:04;3.50;;;1.70;;
36225;SDS011;22268;52.010;4.716;2023-06-14T12:10:39;3.03;;;1.92;;
36225;SDS011;22268;52.010;4.716;2023-06-14T12:13:04;5.25;;;2.00;;
36225;SDS011;22268;52.010;4.716;2023-06-14T12:15:31;3.28;;;1.90;;
36225;SDS011;22268;52.010;4.716;2023-06-14T12:17:57;4.90;;;2.50;;
36225;SDS011;22268;52.010;4.716;2023-06-14T12:20:22;2.33;;;1.90;;
36225;SDS011;22268;52.010;4.716;2023-06-14T12:22:52;6.35;;;2.35;;
36225;SDS011;22268;52.010;4.716;2023-06-14T12:25:27;2.55;;;1.80;;
36225;SDS011;22268;52.010;4.716;2023-06-14T12:27:56;6.95;;;2.35;;
36225;SDS011;22268;52.010;4.716;2023-06-14T12:30:22;4.35;;;1.92;;
36225;SDS011;22268;52.010;4.716;2023-06-14T12:32:47;5.85;;;2.03;;
36225;SDS011;22268;52.010;4.716;2023-06-14T12:35:13;2.42;;;1.80;;
36225;SDS011;22268;52.010;4.716;2023-06-14T12:37:38;2.33;;;1.70;;
36225;SDS011;22268;52.010;4.716;2023-06-14T12:40:03;2.55;;;1.85;;
36225;SDS011;22268;52.010;4.716;2023-06-14T12:42:30;7.62;;;2.40;;
36225;SDS011;22268;52.010;4.716;2023-06-14T12:44:56;6.93;;;1.92;;
36225;SDS011;22268;52.010;4.716;2023-06-14T12:47:21;7.87;;;1.90;;
36225;SDS011;22268;52.010;4.716;2023-06-14T12:49:46;4.20;;;1.67;;
36225;SDS011;22268;52.010;4.716;2023-06-14T12:52:11;4.18;;;2.35;;
36225;SDS011;22268;52.010;4.716;2023-06-14T12:54:37;6.32;;;2.72;;
36225;SDS011;22268;52.010;4.716;2023-06-14T12:57:04;6.18;;;1.90;;
36225;SDS011;22268;52.010;4.716;2023-06-14T12:59:29;7.28;;;2.00;;
36225;SDS011;22268;52.010;4.716;2023-06-14T13:01:57;3.60;;;2.15;;
36225;SDS011;22268;52.010;4.716;2023-06-14T13:04:23;3.87;;;2.00;;
36225;SDS011;22268;52.010;4.716;2023-06-14T13:06:48;2.27;;;1.83;;
36225;SDS011;22268;52.010;4.716;2023-06-14T13:09:13;5.85;;;2.10;;
36225;SDS011;22268;52.010;4.716;2023-06-14T13:11:40;6.40;;;2.55;;
36225;SDS011;22268;52.010;4.716;2023-06-14T13:14:05;4.35;;;1.80;;
36225;SDS011;22268;52.010;4.716;2023-06-14T13:16:30;4.25;;;2.25;;
36225;SDS011;22268;52.010;4.716;2023-06-14T13:18:56;7.57;;;2.20;;
36225;SDS011;22268;52.010;4.716;2023-06-14T13:21:21;4.68;;;2.15;;
36225;SDS011;22268;52.010;4.716;2023-06-14T13:23:46;4.43;;;1.87;;
36225;SDS011;22268;52.010;4.716;2023-06-14T13:26:11;5.68;;;1.90;;
36225;SDS011;22268;52.010;4.716;2023-06-14T13:28:37;3.50;;;2.00;;
36225;SDS011;22268;52.010;4.716;2023-06-14T13:31:02;9.93;;;2.10;;
36225;SDS011;22268;52.010;4.716;2023-06-14T13:33:27;7.07;;;2.15;;
36225;SDS011;22268;52.010;4.716;2023-06-14T13:35:53;5.70;;;1.80;;
36225;SDS011;22268;52.010;4.716;2023-06-14T13:38:18;4.93;;;1.87;;
36225;SDS011;22268;52.010;4.716;2023-06-14T13:40:43;3.70;;;1.87;;
36225;SDS011;22268;52.010;4.716;2023-06-14T13:43:08;9.35;;;1.80;;
36225;SDS011;22268;52.010;4.716;2023-06-14T13:45:33;4.20;;;2.17;;
36225;SDS011;22268;52.010;4.716;2023-06-14T13:47:58;2.58;;;1.90;;
36225;SDS011;22268;52.010;4.716;2023-06-14T13:50:24;3.70;;;1.95;;
36225;SDS011;22268;52.010;4.716;2023-06-14T13:52:50;2.92;;;1.90;;
36225;SDS011;22268;52.010;4.716;2023-06-14T13:55:15;6.20;;;2.00;;
36225;SDS011;22268;52.010;4.716;2023-06-14T13:57:40;2.15;;;1.80;;
36225;SDS011;22268;52.010;4.716;2023-06-14T14:00:05;2.10;;;1.80;;
36225;SDS011;22268;52.010;4.716;2023-06-14T14:02:31;3.70;;;1.73;;
36225;SDS011;22268;52.010;4.716;2023-06-14T14:04:56;4.55;;;1.70;;
36225;SDS011;22268;52.010;4.716;2023-06-14T14:07:22;5.70;;;2.00;;
36225;SDS011;22268;52.010;4.716;2023-06-14T14:09:48;3.37;;;1.90;;
36225;SDS011;22268;52.010;4.716;2023-06-14T14:12:13;11.18;;;2.37;;
36225;SDS011;22268;52.010;4.716;2023-06-14T14:14:42;6.05;;;2.12;;
36225;SDS011;22268;52.010;4.716;2023-06-14T14:17:07;3.20;;;2.10;;
36225;SDS011;22268;52.010;4.716;2023-06-14T14:19:32;3.35;;;1.83;;
36225;SDS011;22268;52.010;4.716;2023-06-14T14:21:58;3.87;;;2.27;;
36225;SDS011;22268;52.010;4.716;2023-06-14T14:24:23;5.30;;;1.85;;
36225;SDS011;22268;52.010;4.716;2023-06-14T14:26:48;1.87;;;1.60;;
36225;SDS011;22268;52.010;4.716;2023-06-14T14:29:14;3.35;;;1.85;;
36225;SDS011;22268;52.010;4.716;2023-06-14T14:31:39;4.43;;;2.25;;
36225;SDS011;22268;52.010;4.716;2023-06-14T14:34:05;2.53;;;1.83;;
36225;SDS011;22268;52.010;4.716;2023-06-14T14:36:30;5.55;;;2.03;;
36225;SDS011;22268;52.010;4.716;2023-06-14T14:38:55;3.27;;;1.97;;
36225;SDS011;22268;52.010;4.716;2023-06-14T14:41:20;3.37;;;1.80;;
36225;SDS011;22268;52.010;4.716;2023-06-14T14:43:47;3.83;;;2.20;;
36225;SDS011;22268;52.010;4.716;2023-06-14T14:46:12;4.30;;;2.08;;
36225;SDS011;22268;52.010;4.716;2023-06-14T14:48:37;7.00;;;2.70;;
36225;SDS011;22268;52.010;4.716;2023-06-14T14:51:03;5.93;;;2.23;;
36225;SDS011;22268;52.010;4.716;2023-06-14T14:53:28;3.60;;;1.70;;